LRDK1: Arkansas River nr Larned, KS

Data processed at Wed May 22 2019 23:50


All information presented herein is the property of the government of the United States of America and may be revised or deleted at any time without prior notice.
Dissemination of this information without the expressed written consent of the Public Affairs Office, Tulsa District U.S. Army Corps of Engineers is strictly prohibited.
These data are gathered electronically and, as presented, have not undergone any form of quality control. These data are not guaranteed to be valid or correct.
Go to home page.
Go to station list.
Go to home page.

Upstream stations:

Downstream station:
Previous Day
Next Day
Current Day
    
SHEF ID:       LRDK1     ARKANSAS R NR LARNED, KS
STATION TYPE:  

               PRECIP     STAGE  STAGE(2)  RIV-FLOW  BAT-LOAD
                   in        ft        ft       cfs      volt
              Ccp-Rev   Ccp-Rev   Ccp-Rev   Ccp-Rev   Ccp-Rev
(US/Central)
05/22 00:00      0.00     10.24      ----      1698     12.89
05/22 01:00      0.00     10.41      ----      1785     12.89
05/22 02:00      0.00     10.57      ----      1868     12.81
05/22 03:00      0.00     10.74      ----      1958     12.81
05/22 04:00      0.00     10.89      ----      2040     12.81
05/22 05:00      0.00     11.04      ----      2123     12.73
05/22 06:00      0.00     11.18      ----      2202     12.73
05/22 07:00      0.00     11.30      ----      2271     12.73
05/22 08:00      0.00     11.40      ----      2329     12.73
05/22 09:00      0.00     11.53      ----      2406     12.81
05/22 10:00      0.00     11.64      ----      2472     13.13
05/22 11:00      0.00     11.74      ----      2532     13.84
05/22 12:00      0.00     11.85      ----      2600     14.08
05/22 13:00      0.00     11.94      ----      2656     13.60
05/22 14:00      0.00     12.03      ----      2712     13.60
05/22 15:00      0.00     12.13      ----      2775     13.60
05/22 16:00      0.00     12.21      ----      2826     13.60
05/22 17:00      0.00     12.32      ----      2897     13.53
05/22 18:00      0.00     12.40      ----      2950     13.53
05/22 19:00      0.00     12.49      ----      3009     13.21
05/22 20:00      0.00     12.56      ----      3056     13.05
05/22 21:00      0.00     12.62      ----      3096     13.05
05/22 22:00      0.00     12.67      ----      3129     13.05
05/22 23:00      0.00     12.75      ----      3184     12.97